createdAt,value
2018-08-11T00:00:47.254Z,21.70
2018-08-11T00:03:15.398Z,21.69
2018-08-11T00:05:43.675Z,21.64
2018-08-11T00:08:11.811Z,21.57
2018-08-11T00:10:40.064Z,21.60
2018-08-11T00:13:09.295Z,21.69
2018-08-11T00:15:37.638Z,21.58
2018-08-11T00:18:06.529Z,21.52
2018-08-11T00:20:34.663Z,21.47
2018-08-11T00:23:02.850Z,21.43
2018-08-11T00:25:31.059Z,21.39
2018-08-11T00:27:59.185Z,21.43
2018-08-11T00:30:27.334Z,21.49
2018-08-11T00:32:55.626Z,21.51
2018-08-11T00:35:23.805Z,21.49
2018-08-11T00:37:52.420Z,21.47
2018-08-11T00:40:20.987Z,21.50
2018-08-11T00:42:50.243Z,21.46
2018-08-11T00:45:18.910Z,21.46
2018-08-11T00:47:47.186Z,21.50
2018-08-11T00:50:24.876Z,21.49
2018-08-11T00:52:53.408Z,21.44
2018-08-11T00:55:21.699Z,21.42
2018-08-11T00:57:49.998Z,21.42
2018-08-11T01:00:19.159Z,21.38
2018-08-11T01:02:47.650Z,21.44
2018-08-11T01:05:18.001Z,21.40
2018-08-11T01:07:46.572Z,21.45
2018-08-11T01:10:15.474Z,21.44
2018-08-11T01:12:44.431Z,21.39
2018-08-11T01:15:17.795Z,21.43
2018-08-11T01:17:46.710Z,21.40
2018-08-11T01:20:15.496Z,21.36
2018-08-11T01:22:44.504Z,21.32
2018-08-11T01:25:13.394Z,21.33
2018-08-11T01:27:41.745Z,21.29
2018-08-11T01:30:14.053Z,21.36
2018-08-11T01:32:42.216Z,21.35
2018-08-11T01:35:11.081Z,21.37
2018-08-11T01:37:40.093Z,21.34
2018-08-11T01:40:10.391Z,21.34
2018-08-11T01:42:38.983Z,21.32
2018-08-11T01:45:08.320Z,21.32
2018-08-11T01:47:36.804Z,21.29
2018-08-11T01:50:05.559Z,21.29
2018-08-11T01:52:34.062Z,21.31
2018-08-11T01:55:02.336Z,21.21
2018-08-11T01:57:30.544Z,21.23
2018-08-11T01:59:58.847Z,21.22
2018-08-11T02:02:27.123Z,21.23
2018-08-11T02:04:55.384Z,21.24
2018-08-11T02:07:23.655Z,21.26
2018-08-11T02:09:51.948Z,21.24
2018-08-11T02:12:20.387Z,21.18
2018-08-11T02:14:48.493Z,21.19
2018-08-11T02:17:16.795Z,21.16
2018-08-11T02:19:44.987Z,21.18
2018-08-11T02:22:13.185Z,21.17
2018-08-11T02:24:41.474Z,21.12
2018-08-11T02:27:09.786Z,21.14
2018-08-11T02:29:38.007Z,21.10
2018-08-11T02:32:06.503Z,21.11
2018-08-11T02:34:36.141Z,21.02
2018-08-11T02:37:04.647Z,21.00
2018-08-11T02:39:32.787Z,21.02
2018-08-11T02:42:01.249Z,20.98
2018-08-11T02:44:29.399Z,21.02
2018-08-11T02:46:57.752Z,20.95
2018-08-11T02:49:26.102Z,20.92
2018-08-11T02:51:54.435Z,20.93
2018-08-11T02:54:22.624Z,20.90
2018-08-11T02:56:50.754Z,20.91
2018-08-11T02:59:24.660Z,20.95
2018-08-11T03:01:53.804Z,20.89
2018-08-11T03:04:22.391Z,20.86
2018-08-11T03:06:50.952Z,20.86
2018-08-11T03:09:19.837Z,20.85
2018-08-11T03:11:48.077Z,20.84
2018-08-11T03:14:16.463Z,20.82
2018-08-11T03:16:45.195Z,20.80
2018-08-11T03:19:13.552Z,20.80
2018-08-11T03:21:41.909Z,20.72
2018-08-11T03:24:10.415Z,20.67
2018-08-11T03:26:38.900Z,20.65
2018-08-11T03:29:07.257Z,20.64
2018-08-11T03:31:35.835Z,20.66
2018-08-11T03:34:04.053Z,20.65
2018-08-11T03:36:32.362Z,20.64
2018-08-11T03:39:00.661Z,20.55
2018-08-11T03:41:29.031Z,20.51
2018-08-11T03:43:57.264Z,20.45
2018-08-11T03:46:25.464Z,20.43
2018-08-11T03:48:53.798Z,20.35
2018-08-11T03:51:22.123Z,20.31
2018-08-11T03:53:50.275Z,20.25
2018-08-11T03:56:18.521Z,20.28
2018-08-11T03:58:46.759Z,20.28
2018-08-11T04:01:14.976Z,20.27
2018-08-11T04:03:43.831Z,20.21
2018-08-11T04:06:12.511Z,20.19
2018-08-11T04:08:41.188Z,20.22
2018-08-11T04:11:09.294Z,20.07
2018-08-11T04:13:37.688Z,20.05
2018-08-11T04:16:06.334Z,19.97
2018-08-11T04:18:34.736Z,20.04
2018-08-11T04:21:03.010Z,19.98
2018-08-11T04:23:32.059Z,19.82
2018-08-11T04:26:00.532Z,19.80
2018-08-11T04:28:29.010Z,19.79
2018-08-11T04:30:57.170Z,19.85
2018-08-11T04:33:25.567Z,19.75
2018-08-11T04:35:54.141Z,19.76
2018-08-11T04:38:22.285Z,19.81
2018-08-11T04:40:50.803Z,19.85
2018-08-11T04:43:19.130Z,19.90
2018-08-11T04:45:47.233Z,20.00
2018-08-11T04:48:15.954Z,20.02
2018-08-11T04:50:44.239Z,19.99
2018-08-11T04:53:12.784Z,19.93
2018-08-11T04:55:41.018Z,20.01
2018-08-11T04:58:09.427Z,20.05
2018-08-11T05:00:37.632Z,20.03
2018-08-11T05:03:06.066Z,20.02
2018-08-11T05:05:34.250Z,20.07
2018-08-11T05:08:02.370Z,20.14
2018-08-11T05:10:30.607Z,20.18
2018-08-11T05:12:59.571Z,20.25
2018-08-11T05:15:27.671Z,20.25
2018-08-11T05:17:56.146Z,20.26
2018-08-11T05:20:25.536Z,20.25
2018-08-11T05:22:53.923Z,20.25
2018-08-11T05:25:22.172Z,20.31
2018-08-11T05:27:50.662Z,20.38
2018-08-11T05:30:19.051Z,20.41
2018-08-11T05:32:47.292Z,20.51
2018-08-11T05:35:15.653Z,20.57
2018-08-11T05:37:43.956Z,20.61
2018-08-11T05:40:12.320Z,20.65
2018-08-11T05:42:40.531Z,20.67
2018-08-11T05:45:10.033Z,20.69
2018-08-11T05:47:38.244Z,20.70
2018-08-11T05:50:06.413Z,20.74
2018-08-11T05:52:34.728Z,20.80
2018-08-11T05:55:03.159Z,20.81
2018-08-11T05:57:31.477Z,20.88
2018-08-11T05:59:59.692Z,20.94
2018-08-11T06:02:28.250Z,20.99
2018-08-11T06:04:56.585Z,21.01
2018-08-11T06:07:25.942Z,21.07
2018-08-11T06:09:54.866Z,21.12
2018-08-11T06:12:23.222Z,21.18
2018-08-11T06:14:51.722Z,21.25
2018-08-11T06:17:19.888Z,21.29
2018-08-11T06:19:48.454Z,21.30
2018-08-11T06:22:16.819Z,21.32
2018-08-11T06:24:44.927Z,21.36
2018-08-11T06:27:13.567Z,21.40
2018-08-11T06:29:42.106Z,21.44
2018-08-11T06:32:10.688Z,21.50
2018-08-11T06:34:38.789Z,21.50
2018-08-11T06:37:07.416Z,21.48
2018-08-11T06:39:35.939Z,21.53
2018-08-11T06:42:04.248Z,21.60
2018-08-11T06:44:32.441Z,21.65
2018-08-11T06:47:00.674Z,21.71
2018-08-11T06:49:29.048Z,21.75
2018-08-11T06:51:57.508Z,21.80
2018-08-11T06:54:25.774Z,21.84
2018-08-11T06:56:54.082Z,21.88
2018-08-11T06:59:22.540Z,21.89
2018-08-11T07:01:50.679Z,21.92
2018-08-11T07:04:18.795Z,21.92
2018-08-11T07:06:47.132Z,21.90
2018-08-11T07:09:15.317Z,21.88
2018-08-11T07:11:43.494Z,21.91
2018-08-11T07:14:11.915Z,21.92
2018-08-11T07:16:40.341Z,21.94
2018-08-11T07:19:08.756Z,21.93
2018-08-11T07:21:37.066Z,21.89
2018-08-11T07:24:05.311Z,21.86
2018-08-11T07:26:33.520Z,21.92
2018-08-11T07:29:04.387Z,21.96
2018-08-11T07:31:32.851Z,21.97
2018-08-11T07:34:01.265Z,22.01
2018-08-11T07:36:29.992Z,22.05
2018-08-11T07:38:58.222Z,22.08
2018-08-11T07:41:26.444Z,22.09
2018-08-11T07:43:54.592Z,22.11
2018-08-11T07:46:23.032Z,22.19
2018-08-11T07:48:51.830Z,22.25
2018-08-11T07:54:15.905Z,22.26
2018-08-11T07:56:44.026Z,22.21
2018-08-11T07:59:12.644Z,22.20
2018-08-11T08:01:40.916Z,22.21
2018-08-11T08:04:09.159Z,22.22
2018-08-11T08:06:37.276Z,22.23
2018-08-11T08:09:08.440Z,22.25
2018-08-11T08:11:36.578Z,22.28
2018-08-11T08:14:05.166Z,22.32
2018-08-11T08:16:33.445Z,22.37
2018-08-11T08:19:01.649Z,22.39
2018-08-11T08:21:29.758Z,22.40
2018-08-11T08:23:57.858Z,22.40
2018-08-11T08:26:26.260Z,22.45
2018-08-11T08:28:54.324Z,22.47
2018-08-11T08:31:22.888Z,22.49
2018-08-11T08:33:51.119Z,22.51
2018-08-11T08:36:19.815Z,22.53
2018-08-11T08:38:47.958Z,22.54
2018-08-11T08:41:16.571Z,22.60
2018-08-11T08:43:44.720Z,22.65
2018-08-11T08:46:12.894Z,22.68
2018-08-11T08:48:41.120Z,22.69
2018-08-11T08:51:09.689Z,22.73
2018-08-11T08:53:38.039Z,22.76
2018-08-11T08:56:06.664Z,22.75
2018-08-11T08:58:34.951Z,22.78
2018-08-11T09:01:03.065Z,22.77
2018-08-11T09:03:31.754Z,22.73
2018-08-11T09:06:00.033Z,22.74
2018-08-11T09:08:28.262Z,22.79
2018-08-11T09:10:56.740Z,22.83
2018-08-11T09:13:47.287Z,22.88
2018-08-11T09:16:15.458Z,22.90
2018-08-11T09:18:43.892Z,22.94
2018-08-11T09:21:12.116Z,22.95
2018-08-11T09:23:40.448Z,22.94
2018-08-11T09:26:08.664Z,22.94
2018-08-11T09:28:37.058Z,22.99
2018-08-11T09:31:05.637Z,23.05
2018-08-11T09:33:34.302Z,23.08
2018-08-11T09:36:02.535Z,23.08
2018-08-11T09:38:31.135Z,23.10
2018-08-11T09:40:59.409Z,23.09
2018-08-11T09:43:27.929Z,23.09
2018-08-11T09:45:56.344Z,23.14
2018-08-11T09:48:24.527Z,23.17
2018-08-11T09:50:53.329Z,23.18
2018-08-11T09:53:21.842Z,23.22
2018-08-11T09:55:50.187Z,23.26
2018-08-11T09:58:18.653Z,23.32
2018-08-11T10:00:49.251Z,23.36
2018-08-11T10:03:17.723Z,23.37
2018-08-11T10:05:46.022Z,23.41
2018-08-11T10:08:14.195Z,23.41
2018-08-11T10:10:43.475Z,23.45
2018-08-11T10:13:11.888Z,23.46
2018-08-11T10:15:40.060Z,23.41
2018-08-11T10:18:08.591Z,23.43
2018-08-11T10:20:36.867Z,23.47
2018-08-11T10:23:05.542Z,23.50
2018-08-11T10:25:33.670Z,23.48
2018-08-11T10:28:01.993Z,23.50
2018-08-11T10:30:30.444Z,23.53
2018-08-11T10:32:58.875Z,23.54
2018-08-11T10:35:27.669Z,23.55
2018-08-11T10:37:55.918Z,23.58
2018-08-11T10:40:24.136Z,23.59
2018-08-11T10:42:52.449Z,23.62
2018-08-11T10:45:21.920Z,23.63
2018-08-11T10:47:50.467Z,23.70
2018-08-11T10:50:18.995Z,23.74
2018-08-11T10:52:47.345Z,23.79
2018-08-11T10:55:52.765Z,23.84
2018-08-11T10:58:22.048Z,23.84
2018-08-11T11:01:26.811Z,23.90
2018-08-11T11:03:55.318Z,23.99
2018-08-11T11:06:23.675Z,24.03
2018-08-11T11:11:10.807Z,24.14
2018-08-11T11:13:59.929Z,24.23
2018-08-11T11:16:28.199Z,24.24
2018-08-11T11:18:56.537Z,24.33
2018-08-11T11:21:24.902Z,24.41
2018-08-11T11:23:53.335Z,24.45
2018-08-11T11:26:21.589Z,24.51
2018-08-11T11:28:49.784Z,24.56
2018-08-11T11:31:18.225Z,24.59
2018-08-11T11:34:16.971Z,24.69
2018-08-11T11:36:45.153Z,24.72
2018-08-11T11:39:13.272Z,24.70
2018-08-11T11:41:41.536Z,24.75
2018-08-11T11:44:09.687Z,24.79
2018-08-11T11:46:37.796Z,24.82
2018-08-11T11:49:06.123Z,24.88
2018-08-11T11:51:34.359Z,24.90
2018-08-11T11:54:02.824Z,24.97
2018-08-11T12:02:09.446Z,24.97
2018-08-11T12:04:37.571Z,25.01
2018-08-11T12:07:06.160Z,25.04
2018-08-11T12:09:34.304Z,25.06
2018-08-11T12:12:02.427Z,25.03
2018-08-11T12:14:30.608Z,25.02
2018-08-11T12:16:58.810Z,25.00
2018-08-11T12:19:27.077Z,25.00
2018-08-11T12:21:55.235Z,25.04
2018-08-11T12:24:23.322Z,24.99
2018-08-11T12:26:51.470Z,25.05
2018-08-11T12:29:19.673Z,25.11
2018-08-11T12:31:47.840Z,25.11
2018-08-11T12:34:15.958Z,25.10
2018-08-11T12:36:44.299Z,25.16
2018-08-11T12:39:12.490Z,25.19
2018-08-11T12:41:41.306Z,25.19
2018-08-11T12:44:09.859Z,25.26
2018-08-11T12:46:37.955Z,25.34
2018-08-11T12:49:06.126Z,25.37
2018-08-11T12:51:34.228Z,25.38
2018-08-11T12:54:02.365Z,25.39
2018-08-11T12:56:30.550Z,25.39
2018-08-11T12:58:58.968Z,25.41
2018-08-11T13:01:27.198Z,25.42
2018-08-11T13:03:55.335Z,25.44
2018-08-11T13:06:23.816Z,25.40
2018-08-11T13:08:52.098Z,25.38
2018-08-11T13:11:20.261Z,25.40
2018-08-11T13:13:48.374Z,25.39
2018-08-11T13:16:16.522Z,25.43
2018-08-11T13:18:44.894Z,25.54
2018-08-11T13:21:13.039Z,25.66
2018-08-11T13:23:41.506Z,25.65
2018-08-11T13:26:10.013Z,25.65
2018-08-11T13:28:38.150Z,25.65
2018-08-11T13:31:06.791Z,25.68
2018-08-11T13:33:35.077Z,25.70
2018-08-11T13:36:03.208Z,25.75
2018-08-11T13:38:31.481Z,25.76
2018-08-11T13:40:59.634Z,25.75
2018-08-11T13:43:28.108Z,25.83
2018-08-11T13:45:56.384Z,25.92
2018-08-11T13:48:24.560Z,26.00
2018-08-11T13:50:52.758Z,26.03
2018-08-11T13:53:26.675Z,26.04
2018-08-11T13:55:54.951Z,26.00
2018-08-11T13:58:23.327Z,26.00
2018-08-11T14:00:52.191Z,26.01
2018-08-11T14:03:20.485Z,26.04
2018-08-11T14:05:48.622Z,26.06
2018-08-11T14:08:17.128Z,26.11
2018-08-11T14:10:45.497Z,26.14
2018-08-11T14:13:13.800Z,26.17
2018-08-11T14:15:42.931Z,26.17
2018-08-11T14:18:11.036Z,26.19
2018-08-11T14:20:39.332Z,26.17
2018-08-11T14:23:07.481Z,26.21
2018-08-11T14:25:35.665Z,26.23
2018-08-11T14:28:03.899Z,26.22
2018-08-11T14:30:32.032Z,26.25
2018-08-11T14:33:00.260Z,26.21
2018-08-11T14:35:28.501Z,26.32
2018-08-11T14:37:56.612Z,26.39
2018-08-11T14:40:24.831Z,26.44
2018-08-11T14:42:52.916Z,26.49
2018-08-11T14:45:21.838Z,26.55
2018-08-11T14:47:50.059Z,26.56
2018-08-11T14:50:18.135Z,26.55
2018-08-11T14:52:46.401Z,26.51
2018-08-11T14:55:14.698Z,26.54
2018-08-11T14:57:42.900Z,26.73
2018-08-11T15:00:13.006Z,26.89
2018-08-11T15:02:41.554Z,26.99
2018-08-11T15:05:10.332Z,27.03
2018-08-11T15:07:38.560Z,27.05
2018-08-11T15:10:07.530Z,26.93
2018-08-11T15:12:36.588Z,26.88
2018-08-11T15:15:05.782Z,26.81
2018-08-11T15:17:34.256Z,26.82
2018-08-11T15:20:02.353Z,26.81
2018-08-11T15:22:30.601Z,26.80
2018-08-11T15:24:58.675Z,26.82
2018-08-11T15:27:27.172Z,26.81
2018-08-11T15:29:55.344Z,26.77
2018-08-11T15:32:23.470Z,26.69
2018-08-11T15:34:51.674Z,26.67
2018-08-11T15:37:19.786Z,26.63
2018-08-11T15:39:47.891Z,26.62
2018-08-11T15:42:16.087Z,26.58
2018-08-11T15:44:44.230Z,26.53
2018-08-11T15:47:12.502Z,26.50
2018-08-11T15:49:40.931Z,26.48
2018-08-11T15:52:09.086Z,26.46
2018-08-11T15:54:37.435Z,26.44
2018-08-11T15:57:05.552Z,26.46
2018-08-11T15:59:33.726Z,26.46
2018-08-11T16:02:01.959Z,26.52
2018-08-11T16:04:30.123Z,26.55
2018-08-11T16:06:58.272Z,26.57
2018-08-11T16:09:26.424Z,26.55
2018-08-11T16:11:54.821Z,26.48
2018-08-11T16:14:22.934Z,26.50
2018-08-11T16:16:51.184Z,26.56
2018-08-11T16:19:19.469Z,26.63
2018-08-11T16:21:47.578Z,26.66
2018-08-11T16:24:15.890Z,26.64
2018-08-11T16:26:43.999Z,26.62
2018-08-11T16:29:12.182Z,26.56
2018-08-11T16:31:40.271Z,26.52
2018-08-11T16:34:08.393Z,26.52
2018-08-11T16:36:36.809Z,26.59
2018-08-11T16:39:08.850Z,26.65
2018-08-11T16:41:38.093Z,26.67
2018-08-11T16:44:06.229Z,26.76
2018-08-11T16:46:34.557Z,26.75
2018-08-11T16:49:02.818Z,26.76
2018-08-11T16:51:31.062Z,26.79
2018-08-11T16:54:00.042Z,26.77
2018-08-11T16:56:28.502Z,26.73
2018-08-11T16:58:56.714Z,26.64
2018-08-11T17:01:25.032Z,26.50
2018-08-11T17:03:53.239Z,26.51
2018-08-11T17:06:21.380Z,26.51
2018-08-11T17:08:49.610Z,26.49
2018-08-11T17:11:17.793Z,26.47
2018-08-11T17:13:45.929Z,26.43
2018-08-11T17:16:14.074Z,26.38
2018-08-11T17:18:42.207Z,26.33
2018-08-11T17:21:10.331Z,26.25
2018-08-11T17:23:38.438Z,26.21
2018-08-11T17:26:06.648Z,26.18
2018-08-11T17:28:34.916Z,26.21
2018-08-11T17:31:03.420Z,26.33
2018-08-11T17:33:32.037Z,26.31
2018-08-11T17:36:00.297Z,26.28
2018-08-11T17:38:28.713Z,26.38
2018-08-11T17:40:56.830Z,26.49
2018-08-11T17:43:25.079Z,26.53
2018-08-11T17:45:53.261Z,26.57
2018-08-11T17:48:21.438Z,26.59
2018-08-11T17:50:49.712Z,26.65
2018-08-11T17:53:18.887Z,26.69
2018-08-11T17:55:47.456Z,26.73
2018-08-11T17:58:15.666Z,26.73
2018-08-11T18:00:44.095Z,26.75
2018-08-11T18:03:12.183Z,26.77
2018-08-11T18:05:40.439Z,26.74
2018-08-11T18:08:08.655Z,26.67
2018-08-11T18:10:36.821Z,26.64
2018-08-11T18:13:05.278Z,26.67
2018-08-11T18:15:33.607Z,26.69
2018-08-11T18:18:01.728Z,26.65
2018-08-11T18:20:30.283Z,26.61
2018-08-11T18:22:58.407Z,26.55
2018-08-11T18:25:26.609Z,26.40
2018-08-11T18:27:54.947Z,26.24
2018-08-11T18:30:23.311Z,26.14
2018-08-11T18:32:52.931Z,26.10
2018-08-11T18:35:21.045Z,26.02
2018-08-11T18:37:49.258Z,26.01
2018-08-11T18:40:17.478Z,25.91
2018-08-11T18:42:45.587Z,25.80
2018-08-11T18:45:13.838Z,25.70
2018-08-11T18:47:42.000Z,25.68
2018-08-11T18:50:10.168Z,25.57
2018-08-11T18:52:38.435Z,25.48
2018-08-11T18:55:08.111Z,25.38
2018-08-11T18:57:36.466Z,25.32
2018-08-11T19:00:09.739Z,25.28
2018-08-11T19:02:38.682Z,25.24
2018-08-11T19:05:06.960Z,25.26
2018-08-11T19:07:35.089Z,25.26
2018-08-11T19:10:03.238Z,25.16
2018-08-11T19:12:31.586Z,25.13
2018-08-11T19:14:59.687Z,25.07
2018-08-11T19:17:27.903Z,24.97
2018-08-11T19:19:56.075Z,24.88
2018-08-11T19:22:24.131Z,24.80
2018-08-11T19:24:52.315Z,24.77
2018-08-11T19:27:20.415Z,24.83
2018-08-11T19:29:48.535Z,24.79
2018-08-11T19:32:16.836Z,24.64
2018-08-11T19:34:44.935Z,24.60
2018-08-11T19:37:13.255Z,24.58
2018-08-11T19:39:41.419Z,24.55
2018-08-11T19:42:09.532Z,24.49
2018-08-11T19:44:37.817Z,24.36
2018-08-11T19:47:06.380Z,24.31
2018-08-11T19:49:34.587Z,24.25
2018-08-11T19:52:02.735Z,24.11
2018-08-11T19:54:30.849Z,24.03
2018-08-11T19:56:59.280Z,24.01
2018-08-11T19:59:27.450Z,23.93
2018-08-11T20:01:55.758Z,23.83
2018-08-11T20:04:23.955Z,23.79
2018-08-11T20:06:52.123Z,23.75
2018-08-11T20:09:20.281Z,23.64
2018-08-11T20:11:48.379Z,23.55
2018-08-11T20:14:17.006Z,23.48
2018-08-11T20:16:45.267Z,23.48
2018-08-11T20:19:13.499Z,23.46
2018-08-11T20:21:41.598Z,23.46
2018-08-11T20:24:09.702Z,23.44
2018-08-11T20:26:37.943Z,23.35
2018-08-11T20:29:06.136Z,23.23
2018-08-11T20:31:34.234Z,23.24
2018-08-11T20:34:02.331Z,23.28
2018-08-11T20:36:30.459Z,23.29
2018-08-11T20:38:58.912Z,23.17
2018-08-11T20:41:27.015Z,23.20
2018-08-11T20:43:55.186Z,23.12
2018-08-11T20:46:23.348Z,23.04
2018-08-11T20:48:51.517Z,22.98
2018-08-11T20:51:19.678Z,22.96
2018-08-11T20:53:47.851Z,22.91
2018-08-11T20:56:16.059Z,22.85
2018-08-11T20:58:44.206Z,22.79
2018-08-11T21:01:12.461Z,22.74
2018-08-11T21:03:40.717Z,22.63
2018-08-11T21:06:08.883Z,22.56
2018-08-11T21:08:37.009Z,22.48
2018-08-11T21:11:05.439Z,22.39
2018-08-11T21:13:33.579Z,22.30
2018-08-11T21:16:02.229Z,22.26
2018-08-11T21:18:30.333Z,22.18
2018-08-11T21:20:58.815Z,22.12
2018-08-11T21:23:27.364Z,22.05
2018-08-11T21:25:55.778Z,21.98
2018-08-11T21:28:23.939Z,21.95
2018-08-11T21:30:52.133Z,21.92
2018-08-11T21:33:20.396Z,21.89
2018-08-11T21:35:48.538Z,21.85
2018-08-11T21:38:17.136Z,21.82
2018-08-11T21:40:45.310Z,21.77
2018-08-11T21:43:13.420Z,21.73
2018-08-11T21:45:44.255Z,21.66
2018-08-11T21:48:12.358Z,21.63
2018-08-11T21:50:40.663Z,21.58
2018-08-11T21:53:08.836Z,21.51
2018-08-11T21:55:36.983Z,21.48
2018-08-11T21:58:05.800Z,21.33
2018-08-11T22:00:35.232Z,21.43
2018-08-11T22:03:03.707Z,21.36
2018-08-11T22:05:31.840Z,21.33
2018-08-11T22:08:01.207Z,21.41
2018-08-11T22:10:29.563Z,21.52
2018-08-11T22:12:57.828Z,21.48
2018-08-11T22:15:25.954Z,21.47
2018-08-11T22:17:54.139Z,21.44
2018-08-11T22:20:22.415Z,21.39
2018-08-11T22:22:50.532Z,21.41
2018-08-11T22:25:18.929Z,21.28
2018-08-11T22:27:47.171Z,21.36
2018-08-11T22:30:15.277Z,21.38
2018-08-11T22:32:43.496Z,21.30
2018-08-11T22:35:12.495Z,21.09
2018-08-11T22:37:40.671Z,21.03
2018-08-11T22:40:09.003Z,21.00
2018-08-11T22:42:38.054Z,21.08
2018-08-11T22:45:08.663Z,21.13
2018-08-11T22:47:37.014Z,21.12
2018-08-11T22:50:07.071Z,20.97
2018-08-11T22:52:35.206Z,20.75
2018-08-11T22:55:03.507Z,20.66
2018-08-11T22:57:31.631Z,20.72
2018-08-11T23:00:00.077Z,20.71
2018-08-11T23:02:28.294Z,20.69
2018-08-11T23:04:56.435Z,20.73
2018-08-11T23:07:24.540Z,20.72
2018-08-11T23:09:52.662Z,20.70
2018-08-11T23:12:20.750Z,20.73
2018-08-11T23:14:48.927Z,20.70
2018-08-11T23:17:17.023Z,20.70
2018-08-11T23:19:45.285Z,20.65
2018-08-11T23:22:13.648Z,20.63
2018-08-11T23:24:41.858Z,20.50
2018-08-11T23:27:10.000Z,20.31
2018-08-11T23:29:38.127Z,20.25
2018-08-11T23:32:06.370Z,20.19
2018-08-11T23:34:34.506Z,20.20
2018-08-11T23:37:02.766Z,20.28
2018-08-11T23:39:30.897Z,20.25
2018-08-11T23:41:59.079Z,20.20
2018-08-11T23:44:27.202Z,20.18
2018-08-11T23:46:55.358Z,20.21
2018-08-11T23:49:23.787Z,20.20
2018-08-11T23:51:51.898Z,20.21
2018-08-11T23:54:20.147Z,20.22
2018-08-11T23:56:48.239Z,20.21
2018-08-11T23:59:16.404Z,20.17
